Time;durP1;ratioP1;P1;durP2;ratioP2;P2;SDS_P1;SDS_P2;PMS_P1;PMS_P2;Temp;Humidity;BMP_temperature;BMP_pressure;BME280_temperature;BME280_humidity;BME280_pressure;Samples;Min_cycle;Max_cycle;Signal;HPM_P1;HPM_P2
2023/01/04 00:01:03;;;;;;;0.00;0.00;;;;;;;10.47;100.00;100208.28;6124369;23;20033;-77
2023/01/04 00:03:30;;;;;;;0.10;0.10;;;;;;;10.48;100.00;100217.28;6150619;23;20072;-77
2023/01/04 00:05:57;;;;;;;0.00;0.00;;;;;;;10.39;100.00;100232.59;6118960;23;20013;-78
2023/01/04 00:08:23;;;;;;;0.00;0.00;;;;;;;10.48;100.00;100209.94;6149026;23;20328;-78
2023/01/04 00:10:48;;;;;;;0.10;0.10;;;;;;;10.49;100.00;100194.34;6119080;23;20029;-77
2023/01/04 00:13:14;;;;;;;0.00;0.00;;;;;;;10.50;100.00;100212.41;6149155;23;20037;-79
2023/01/04 00:15:39;;;;;;;0.10;0.10;;;;;;;10.54;100.00;100213.50;6124360;23;20460;-77
2023/01/04 00:18:05;;;;;;;0.03;0.03;;;;;;;10.54;100.00;100213.50;6071268;23;20432;-77
2023/01/04 00:20:30;;;;;;;0.00;0.00;;;;;;;10.56;100.00;100211.31;6101839;23;20009;-76
2023/01/04 00:22:57;;;;;;;0.00;0.00;;;;;;;10.54;100.00;100202.56;6099152;23;20011;-78
2023/01/04 00:25:22;;;;;;;0.10;0.10;;;;;;;10.51;100.00;100192.16;6149628;23;20048;-76
2023/01/04 00:27:49;;;;;;;0.00;0.00;;;;;;;10.53;100.00;100206.38;6120956;23;20010;-77
2023/01/04 00:30:15;;;;;;;0.10;0.10;;;;;;;10.57;100.00;100193.81;6102412;23;20013;-78
2023/01/04 00:32:40;;;;;;;0.08;0.08;;;;;;;10.59;100.00;100205.28;6100626;23;20006;-77
2023/01/04 00:35:07;;;;;;;0.00;0.00;;;;;;;10.60;100.00;100201.47;6120998;23;20021;-77
2023/01/04 00:37:33;;;;;;;0.10;0.10;;;;;;;10.62;100.00;100206.66;6098908;23;20088;-77
2023/01/04 00:39:58;;;;;;;0.00;0.00;;;;;;;10.64;100.00;100240.03;6096499;23;20104;-77
2023/01/04 00:42:24;;;;;;;0.00;0.00;;;;;;;10.66;100.00;100188.63;6125216;23;20020;-77
2023/01/04 00:44:49;;;;;;;0.00;0.00;;;;;;;10.66;100.00;100210.50;6114739;23;20096;-78
2023/01/04 00:47:14;;;;;;;0.00;0.00;;;;;;;10.65;100.00;100220.59;6124635;23;20032;-77
2023/01/04 00:49:40;;;;;;;0.00;0.00;;;;;;;10.61;100.00;100177.69;6121855;23;20044;-77
2023/01/04 00:52:05;;;;;;;0.03;0.03;;;;;;;10.68;100.00;100196.56;6124212;23;20089;-78
2023/01/04 00:54:31;;;;;;;0.10;0.10;;;;;;;10.74;100.00;100212.69;6100450;23;20013;-77
2023/01/04 00:56:57;;;;;;;0.00;0.00;;;;;;;10.78;100.00;100196.56;6121788;23;20028;-76
2023/01/04 00:59:22;;;;;;;0.00;0.00;;;;;;;10.80;100.00;100202.56;6107750;23;20010;-78
2023/01/04 01:01:49;;;;;;;0.00;0.00;;;;;;;10.79;100.00;100225.53;6147958;23;20368;-77
2023/01/04 01:04:17;;;;;;;0.00;0.00;;;;;;;10.81;100.00;100212.44;6143749;23;20385;-79
2023/01/04 01:06:43;;;;;;;0.03;0.03;;;;;;;10.86;100.00;100209.69;6151151;23;20105;-77
2023/01/04 01:09:09;;;;;;;0.08;0.08;;;;;;;10.89;100.00;100202.84;6118804;23;20536;-79
2023/01/04 01:11:35;;;;;;;0.00;0.00;;;;;;;10.89;100.00;100203.66;6123403;23;20049;-77
2023/01/04 01:14:01;;;;;;;0.08;0.08;;;;;;;10.90;100.00;100196.28;6099493;23;20076;-78
2023/01/04 01:16:27;;;;;;;0.00;0.00;;;;;;;10.93;100.00;100207.50;6118414;23;20491;-76
2023/01/04 01:18:52;;;;;;;0.00;0.00;;;;;;;10.91;100.00;100196.00;6101929;23;20355;-78
2023/01/04 01:21:21;;;;;;;0.00;0.00;;;;;;;10.83;100.00;100191.06;6121247;23;20016;-78
2023/01/04 01:23:47;;;;;;;0.00;0.00;;;;;;;10.79;100.00;100206.38;6143884;23;20013;-78
2023/01/04 01:26:16;;;;;;;0.00;0.00;;;;;;;10.72;100.00;100193.00;6148240;23;20001;-78
2023/01/04 01:28:42;;;;;;;0.10;0.10;;;;;;;10.71;100.00;100185.06;6154352;23;20025;-79
2023/01/04 01:31:13;;;;;;;0.00;0.00;;;;;;;10.73;100.00;100196.53;6147661;23;20013;-77
2023/01/04 01:33:43;;;;;;;0.00;0.00;;;;;;;10.76;100.00;100237.03;6152539;23;20084;-77
2023/01/04 01:36:10;;;;;;;0.00;0.00;;;;;;;10.74;100.00;100225.53;6149210;23;20373;-77
2023/01/04 01:38:36;;;;;;;0.00;0.00;;;;;;;10.73;100.00;100194.66;6100746;23;20013;-77
2023/01/04 01:41:03;;;;;;;0.00;0.00;;;;;;;10.75;100.00;100213.53;6151808;23;20005;-77
2023/01/04 01:43:49;;;;;;;0.10;0.10;;;;;;;10.79;100.00;100220.06;6145063;23;20006;-77
2023/01/04 01:46:18;;;;;;;0.00;0.00;;;;;;;10.81;100.00;100206.97;6151862;23;20004;-77
2023/01/04 01:48:44;;;;;;;0.10;0.10;;;;;;;10.82;100.00;100200.41;6148641;23;20337;-78
2023/01/04 01:51:10;;;;;;;0.00;0.00;;;;;;;10.76;100.00;100171.38;6148574;23;20013;-76
2023/01/04 01:53:42;;;;;;;0.10;0.10;;;;;;;10.87;100.00;100191.38;6123376;23;20755;-77
2023/01/04 01:56:09;;;;;;;0.00;0.00;;;;;;;10.88;100.00;100182.88;6152358;23;20029;-77
2023/01/04 01:58:41;;;;;;;0.10;0.10;;;;;;;10.90;100.00;100194.38;6121972;23;20084;-78
2023/01/04 02:01:07;;;;;;;0.00;0.00;;;;;;;10.91;100.00;100201.47;6148262;23;20013;-77
2023/01/04 02:03:39;;;;;;;0.00;0.00;;;;;;;10.92;100.00;100203.13;6127159;23;20381;-78
2023/01/04 02:06:13;;;;;;;0.10;0.10;;;;;;;10.97;100.00;100200.38;6145105;23;20006;-77
2023/01/04 02:08:41;;;;;;;0.00;0.00;;;;;;;10.95;100.00;100180.69;6125261;23;20068;-77
2023/01/04 02:11:07;;;;;;;0.00;0.00;;;;;;;11.04;100.00;100205.59;6146515;23;20021;-77
2023/01/04 02:16:43;;;;;;;0.00;0.00;;;;;;;11.10;100.00;100190.81;6149261;23;20420;-76
2023/01/04 02:19:11;;;;;;;0.00;0.00;;;;;;;11.12;100.00;100187.78;6151049;23;20008;-78
2023/01/04 02:21:48;;;;;;;0.00;0.00;;;;;;;11.12;100.00;100179.59;6149914;23;20029;-76
2023/01/04 02:24:49;;;;;;;0.00;0.00;;;;;;;11.10;100.00;100176.31;6147869;23;20052;-76
2023/01/04 02:27:33;;;;;;;0.10;0.10;;;;;;;11.08;100.00;100167.53;6149965;23;20002;-76
2023/01/04 02:30:13;;;;;;;0.00;0.00;;;;;;;11.07;100.00;100182.31;6145233;23;20048;-76
2023/01/04 02:32:45;;;;;;;0.00;0.00;;;;;;;11.06;100.00;100176.03;6150173;23;20009;-76
2023/01/04 02:35:40;;;;;;;0.00;0.00;;;;;;;11.05;100.00;100168.09;6148932;23;20024;-76
2023/01/04 02:38:09;;;;;;;0.00;0.00;;;;;;;11.02;100.00;100179.59;6144811;23;20001;-76
2023/01/04 02:40:47;;;;;;;0.00;0.00;;;;;;;10.93;100.00;100171.94;6169359;22;21296;-78
2023/01/04 02:46:31;;;;;;;0.00;0.00;;;;;;;10.92;100.00;100164.84;6181862;23;20011;-79
2023/01/04 02:51:46;;;;;;;0.00;0.00;;;;;;;10.97;100.00;100156.59;6175445;23;20414;-79
2023/01/04 02:54:20;;;;;;;0.00;0.00;;;;;;;10.93;100.00;100177.41;6179344;23;20087;-77
2023/01/04 02:56:46;;;;;;;0.00;0.00;;;;;;;10.96;100.00;100171.38;6175529;23;20044;-79
2023/01/04 02:59:33;;;;;;;0.00;0.00;;;;;;;10.97;100.00;100153.88;6178062;23;20005;-78
2023/01/04 03:08:06;;;;;;;0.00;0.00;;;;;;;10.99;100.00;100179.06;6176944;23;20519;-77
2023/01/04 03:10:39;;;;;;;0.10;0.10;;;;;;;11.00;100.00;100160.72;6204348;23;20017;-77
2023/01/04 03:13:15;;;;;;;0.10;0.10;;;;;;;10.97;100.00;100167.56;6202417;23;20016;-77
2023/01/04 03:15:47;;;;;;;0.00;0.00;;;;;;;10.95;100.00;100147.88;6180136;23;20001;-78
2023/01/04 03:18:29;;;;;;;0.00;0.00;;;;;;;10.96;100.00;100160.44;6202230;23;20001;-77
2023/01/04 03:20:57;;;;;;;0.00;0.00;;;;;;;10.97;100.00;100134.72;6176125;23;20048;-78
2023/01/04 03:35:23;;;;;;;0.00;0.00;;;;;;;11.13;100.00;100143.72;6173346;23;20012;-78
2023/01/04 03:50:27;;;;;;;0.00;0.00;;;;;;;11.25;100.00;100150.81;6119170;23;20045;-77
2023/01/04 03:52:54;;;;;;;0.00;0.00;;;;;;;11.27;100.00;100141.25;6175433;23;20004;-76
2023/01/04 03:55:21;;;;;;;0.00;0.00;;;;;;;11.31;100.00;100133.28;6176452;23;20001;-77
2023/01/04 03:57:47;;;;;;;0.00;0.00;;;;;;;11.27;100.00;100138.50;6199033;23;20016;-78
2023/01/04 04:00:16;;;;;;;0.00;0.00;;;;;;;11.28;100.00;100120.97;6179378;23;20007;-78
2023/01/04 04:02:43;;;;;;;0.00;0.00;;;;;;;11.32;100.00;100123.97;6175191;23;20005;-77
2023/01/04 04:10:45;;;;;;;0.00;0.00;;;;;;;11.36;100.00;100127.81;6156893;23;20355;-77
2023/01/04 04:13:10;;;;;;;0.00;0.00;;;;;;;11.37;100.00;100129.44;6122868;23;20001;-77
2023/01/04 04:15:35;;;;;;;0.10;0.10;;;;;;;11.29;100.00;100108.94;6177041;23;20012;-77
2023/01/04 04:18:01;;;;;;;0.00;0.00;;;;;;;11.39;100.00;100129.16;6174412;23;20013;-79
2023/01/04 04:20:26;;;;;;;0.10;0.10;;;;;;;11.34;100.00;100125.31;6151913;23;20391;-78
2023/01/04 04:22:53;;;;;;;0.05;0.05;;;;;;;11.32;100.00;100123.97;6152469;23;20009;-80
2023/01/04 04:25:18;;;;;;;0.10;0.10;;;;;;;11.26;100.00;100122.38;6149767;23;20495;-78
2023/01/04 04:27:43;;;;;;;0.00;0.00;;;;;;;11.23;100.00;100109.22;6178483;23;20089;-79
2023/01/04 04:30:09;;;;;;;0.00;0.00;;;;;;;11.21;100.00;100112.22;6148588;23;20078;-78
2023/01/04 04:32:34;;;;;;;0.00;0.00;;;;;;;11.19;100.00;100136.34;6203615;23;20040;-78
2023/01/04 04:35:00;;;;;;;0.00;0.00;;;;;;;11.20;100.00;100115.25;6125874;23;20088;-78
2023/01/04 04:37:27;;;;;;;0.00;0.00;;;;;;;11.20;100.00;100115.25;6151765;23;20016;-78
2023/01/04 04:39:52;;;;;;;0.00;0.00;;;;;;;11.15;100.00;100102.41;6178485;23;20328;-79
2023/01/04 04:42:18;;;;;;;0.10;0.10;;;;;;;11.17;100.00;100100.22;6173424;23;20021;-78
2023/01/04 04:44:43;;;;;;;0.00;0.00;;;;;;;11.21;100.00;100106.75;6178087;23;20013;-78
2023/01/04 04:47:09;;;;;;;0.00;0.00;;;;;;;11.16;100.00;100115.81;6123745;23;20019;-78
2023/01/04 04:49:34;;;;;;;0.00;0.00;;;;;;;11.15;100.00;100096.94;6153732;23;20031;-77
2023/01/04 04:51:59;;;;;;;0.00;0.00;;;;;;;11.18;100.00;100090.88;6149665;23;20009;-79
2023/01/04 04:54:25;;;;;;;0.00;0.00;;;;;;;11.19;100.00;100095.28;6178877;23;20005;-78
2023/01/04 04:56:50;;;;;;;0.00;0.00;;;;;;;11.17;100.00;100111.16;6156277;23;20096;-78
2023/01/04 04:59:16;;;;;;;0.00;0.00;;;;;;;11.19;100.00;100103.47;6176698;23;20004;-78
2023/01/04 05:01:41;;;;;;;0.00;0.00;;;;;;;11.23;100.00;100123.72;6156231;23;20012;-78
2023/01/04 05:04:07;;;;;;;0.00;0.00;;;;;;;11.24;100.00;100128.09;6176746;23;20019;-79
2023/01/04 05:06:32;;;;;;;0.00;0.00;;;;;;;11.26;100.00;100134.13;6155704;23;20015;-78
2023/01/04 05:09:01;;;;;;;0.00;0.00;;;;;;;11.27;100.00;100105.66;6178561;23;20017;-78
2023/01/04 05:14:10;;;;;;;0.10;0.10;;;;;;;11.30;100.00;100129.75;6155938;23;20031;-77
2023/01/04 05:16:39;;;;;;;0.00;0.00;;;;;;;11.31;100.00;100145.03;6181161;23;20432;-79
2023/01/04 05:19:05;;;;;;;0.10;0.10;;;;;;;11.28;100.00;100112.75;6177055;23;20675;-78
2023/01/04 05:21:30;;;;;;;0.00;0.00;;;;;;;11.26;100.00;100114.16;6179829;23;20016;-78
2023/01/04 05:23:56;;;;;;;0.00;0.00;;;;;;;11.40;100.00;100128.88;6155327;23;20063;-78
2023/01/04 05:26:21;;;;;;;0.00;0.00;;;;;;;11.31;100.00;100111.38;6175898;23;20432;-78
2023/01/04 05:28:49;;;;;;;0.00;0.00;;;;;;;11.32;100.00;100124.78;6180538;23;20032;-79
2023/01/04 05:31:16;;;;;;;0.10;0.10;;;;;;;11.29;100.00;100117.13;6176915;23;20004;-79
2023/01/04 05:33:42;;;;;;;0.00;0.00;;;;;;;11.28;100.00;100123.69;6153754;23;20032;-77
2023/01/04 05:36:07;;;;;;;0.00;0.00;;;;;;;11.31;100.00;100109.47;6154397;23;20005;-78
2023/01/04 05:38:35;;;;;;;0.00;0.00;;;;;;;11.25;100.00;100124.25;6150804;23;20005;-78
2023/01/04 05:41:01;;;;;;;0.00;0.00;;;;;;;11.25;100.00;100121.53;6201806;23;20025;-79
2023/01/04 05:43:26;;;;;;;0.00;0.00;;;;;;;11.24;100.00;100111.66;6153903;23;20035;-78
2023/01/04 05:45:54;;;;;;;0.10;0.10;;;;;;;11.20;100.00;100098.81;6153482;23;20036;-78
2023/01/04 05:48:21;;;;;;;0.00;0.00;;;;;;;11.21;100.00;100109.50;6180519;23;20005;-78
2023/01/04 05:50:47;;;;;;;0.10;0.10;;;;;;;11.19;100.00;100103.47;6200899;23;20001;-78
2023/01/04 05:53:16;;;;;;;0.10;0.10;;;;;;;11.18;100.00;100135.53;6130689;23;20013;-78
2023/01/04 05:55:42;;;;;;;0.00;0.00;;;;;;;11.17;100.00;100105.69;6176024;23;20872;-79
2023/01/04 05:58:07;;;;;;;0.10;0.10;;;;;;;11.16;100.00;100093.09;6154115;23;20016;-79
2023/01/04 06:00:33;;;;;;;0.00;0.00;;;;;;;11.17;100.00;100100.22;6152238;23;20436;-79
2023/01/04 06:03:01;;;;;;;0.00;0.00;;;;;;;11.12;100.00;100083.81;6129702;23;20019;-80
2023/01/04 06:05:26;;;;;;;0.00;0.00;;;;;;;11.21;100.00;100098.53;6179266;23;20005;-78
2023/01/04 06:07:52;;;;;;;0.00;0.00;;;;;;;11.24;100.00;100100.72;6150069;23;20071;-78
2023/01/04 06:10:18;;;;;;;0.00;0.00;;;;;;;11.26;100.00;100105.94;6155617;23;20099;-78
2023/01/04 06:12:44;;;;;;;0.00;0.00;;;;;;;11.23;100.00;100118.25;6174695;23;20017;-77
2023/01/04 06:15:10;;;;;;;0.00;0.00;;;;;;;11.20;100.00;100109.78;6179835;23;20344;-78
2023/01/04 06:17:36;;;;;;;0.00;0.00;;;;;;;11.20;100.00;100104.28;6177169;23;20005;-78
2023/01/04 06:20:04;;;;;;;0.10;0.10;;;;;;;11.20;100.00;100109.78;6180402;23;20004;-79
2023/01/04 06:22:31;;;;;;;0.00;0.00;;;;;;;11.18;100.00;100099.09;6204118;23;20008;-77
2023/01/04 06:24:57;;;;;;;0.00;0.00;;;;;;;11.25;100.00;100118.78;6152013;23;20055;-78
2023/01/04 06:27:22;;;;;;;0.00;0.00;;;;;;;11.28;100.00;100126.44;6155471;23;20005;-78
2023/01/04 06:29:48;;;;;;;0.00;0.00;;;;;;;11.29;100.00;100114.41;6174234;23;20765;-79
2023/01/04 06:32:13;;;;;;;0.10;0.10;;;;;;;11.30;100.00;100121.53;6156620;23;20015;-80
2023/01/04 06:34:39;;;;;;;0.00;0.00;;;;;;;11.26;100.00;100120.44;6177887;23;20005;-78
2023/01/04 06:37:05;;;;;;;0.00;0.00;;;;;;;11.18;100.00;100126.47;6127561;23;20432;-78
2023/01/04 06:39:31;;;;;;;0.10;0.10;;;;;;;11.07;100.00;100122.09;6180244;23;20112;-78
2023/01/04 06:41:56;;;;;;;0.00;0.00;;;;;;;11.03;100.00;100137.47;6151885;23;20021;-78
2023/01/04 06:44:21;;;;;;;0.00;0.00;;;;;;;10.98;100.00;100150.06;6155354;23;20055;-79
2023/01/04 06:46:47;;;;;;;0.00;0.00;;;;;;;10.98;100.00;100141.00;6154523;23;20068;-78
2023/01/04 06:49:13;;;;;;;0.00;0.00;;;;;;;11.03;100.00;100151.94;6127394;23;20006;-78
2023/01/04 06:51:38;;;;;;;0.00;0.00;;;;;;;11.16;100.00;100164.25;6132184;23;20052;-78
2023/01/04 06:54:06;;;;;;;0.00;0.00;;;;;;;11.19;100.00;100141.81;6151760;23;20016;-78
2023/01/04 06:56:32;;;;;;;0.00;0.00;;;;;;;11.28;100.00;100144.78;6155768;23;20009;-77
2023/01/04 06:58:58;;;;;;;0.00;0.00;;;;;;;11.21;100.00;100138.78;6177462;23;20012;-77
2023/01/04 07:01:23;;;;;;;0.00;0.00;;;;;;;11.12;100.00;100138.53;6180924;23;20012;-76
2023/01/04 07:03:49;;;;;;;0.00;0.00;;;;;;;11.05;100.00;100140.72;6178947;23;20324;-78
2023/01/04 07:06:14;;;;;;;0.00;0.00;;;;;;;10.91;100.00;100140.50;6126824;23;20093;-78
2023/01/04 07:08:40;;;;;;;0.00;0.00;;;;;;;10.93;100.00;100155.50;6128915;23;20033;-78
2023/01/04 07:11:07;;;;;;;0.00;0.00;;;;;;;10.92;100.00;100153.06;6125629;23;20051;-77
2023/01/04 07:13:33;;;;;;;0.00;0.00;;;;;;;10.86;100.00;100154.97;6154819;23;20013;-79
2023/01/04 07:15:58;;;;;;;0.00;0.00;;;;;;;10.93;100.00;100171.94;6151431;23;20392;-78
2023/01/04 07:18:31;;;;;;;0.00;0.00;;;;;;;10.80;100.00;100134.19;6180261;23;20046;-81
2023/01/04 07:20:57;;;;;;;0.10;0.10;;;;;;;10.92;100.00;100159.38;6152024;23;20016;-79
2023/01/04 07:23:22;;;;;;;0.00;0.00;;;;;;;11.07;100.00;100179.56;6128751;23;20009;-80
2023/01/04 07:25:48;;;;;;;0.00;0.00;;;;;;;11.11;100.00;100172.47;6155050;23;20005;-79
2023/01/04 07:29:13;;;;;;;0.00;0.00;;;;;;;11.13;100.00;100175.75;6127633;23;20012;-79
2023/01/04 07:31:08;;;;;;;0.00;0.00;;;;;;;11.07;100.00;100174.09;6181623;23;20043;-81
2023/01/04 07:33:33;;;;;;;0.00;0.00;;;;;;;11.03;100.00;100175.78;6204722;23;21033;-79
2023/01/04 07:36:08;;;;;;;0.10;0.10;;;;;;;11.05;100.00;100185.31;6132347;23;20105;-80
2023/01/04 07:38:34;;;;;;;0.00;0.00;;;;;;;11.10;100.00;100204.50;6176780;23;20425;-80
2023/01/04 07:40:59;;;;;;;0.00;0.00;;;;;;;11.13;100.00;100203.13;6203701;23;20017;-78
2023/01/04 07:43:25;;;;;;;0.00;0.00;;;;;;;11.13;100.00;100212.16;6152940;23;20067;-79
2023/01/04 07:45:50;;;;;;;0.00;0.00;;;;;;;11.16;100.00;100208.84;6176513;23;20344;-79
2023/01/04 07:48:16;;;;;;;0.00;0.00;;;;;;;11.20;100.00;100220.09;6201601;23;20019;-78
2023/01/04 07:50:41;;;;;;;0.10;0.10;;;;;;;11.20;100.00;100214.63;6149508;23;20009;-80
2023/01/04 07:53:07;;;;;;;0.00;0.00;;;;;;;11.30;100.00;100225.53;6178572;23;20032;-81
2023/01/04 07:55:35;;;;;;;0.10;0.10;;;;;;;11.37;100.00;100224.44;6175086;23;20080;-81
2023/01/04 07:58:00;;;;;;;0.00;0.00;;;;;;;11.35;100.00;100228.25;6179332;23;20052;-80
2023/01/04 08:00:33;;;;;;;0.10;0.10;;;;;;;11.41;100.00;100231.00;6127851;23;20013;-80
2023/01/04 08:03:10;;;;;;;0.00;0.00;;;;;;;11.42;100.00;100227.16;6178655;23;20103;-80
2023/01/04 08:05:35;;;;;;;0.00;0.00;;;;;;;11.49;100.00;100235.91;6176484;23;20032;-81
2023/01/04 08:08:01;;;;;;;0.10;0.10;;;;;;;11.52;100.00;100233.44;6129818;23;20413;-80
2023/01/04 08:10:26;;;;;;;0.00;0.00;;;;;;;11.55;100.00;100232.06;6180473;23;20055;-80
2023/01/04 08:12:52;;;;;;;0.10;0.10;;;;;;;11.56;100.00;100227.41;6201980;23;20005;-79
2023/01/04 08:15:20;;;;;;;0.00;0.00;;;;;;;11.55;100.00;100225.75;6204891;23;20079;-79
2023/01/04 08:17:45;;;;;;;0.00;0.00;;;;;;;11.51;100.00;100225.50;6201609;23;20001;-80
2023/01/04 08:20:10;;;;;;;0.00;0.00;;;;;;;11.58;100.00;100247.94;6177535;23;20062;-79
2023/01/04 08:22:36;;;;;;;0.00;0.00;;;;;;;11.60;100.00;100245.75;6179923;23;20013;-79
2023/01/04 08:25:03;;;;;;;0.00;0.00;;;;;;;11.60;100.00;100251.22;6180331;23;20416;-79
2023/01/04 08:27:30;;;;;;;0.00;0.00;;;;;;;11.60;100.00;100245.75;6157994;23;20001;-80
2023/01/04 08:29:55;;;;;;;0.00;0.00;;;;;;;11.55;100.00;100240.28;6180006;23;20450;-78
2023/01/04 08:32:45;;;;;;;0.00;0.00;;;;;;;11.62;100.00;100254.53;6132800;23;20013;-79
2023/01/04 08:35:13;;;;;;;0.00;0.00;;;;;;;11.58;100.00;100250.69;6178202;23;20009;-79
2023/01/04 08:37:41;;;;;;;0.00;0.00;;;;;;;11.63;100.00;100261.63;6176337;23;20005;-80
2023/01/04 08:40:07;;;;;;;0.00;0.00;;;;;;;11.66;100.00;100282.97;6177720;23;20564;-80
2023/01/04 08:42:53;;;;;;;0.00;0.00;;;;;;;11.56;100.00;100274.78;6181333;23;20363;-80
2023/01/04 08:45:18;;;;;;;0.00;0.00;;;;;;;11.63;100.00;100277.25;6178575;23;20005;-79
2023/01/04 08:47:44;;;;;;;0.00;0.00;;;;;;;11.69;100.00;100287.91;6182475;23;20012;-79
2023/01/04 08:50:09;;;;;;;0.00;0.00;;;;;;;11.68;100.00;100285.44;6206295;23;20011;-79
2023/01/04 08:52:35;;;;;;;0.00;0.00;;;;;;;11.83;100.00;100292.81;6153300;23;20008;-80
2023/01/04 08:55:00;;;;;;;0.00;0.00;;;;;;;11.77;100.00;100277.47;6158011;23;20013;-80
2023/01/04 08:57:26;;;;;;;0.00;0.00;;;;;;;11.85;100.00;100298.84;6178263;23;20038;-80
2023/01/04 08:59:51;;;;;;;0.00;0.00;;;;;;;11.84;100.00;100289.81;6133718;23;20121;-80
2023/01/04 09:02:22;;;;;;;0.00;0.00;;;;;;;11.91;100.00;100294.16;6180142;23;19997;-80
2023/01/04 09:04:48;;;;;;;0.00;0.00;;;;;;;11.90;100.00;100298.84;6182832;23;20009;-81
2023/01/04 09:07:17;;;;;;;0.00;0.00;;;;;;;11.82;100.00;100291.97;6157177;23;20009;-80
2023/01/04 09:09:45;;;;;;;0.00;0.00;;;;;;;11.82;100.00;100302.13;6181382;23;20332;-82
2023/01/04 09:12:10;;;;;;;0.00;0.00;;;;;;;11.88;100.00;100292.78;6182451;23;20004;-82
2023/01/04 09:14:46;;;;;;;;;;;;;;;;;;;;;
2023/01/04 09:17:12;;;;;;;0.00;0.00;;;;;;;11.86;100.00;100289.53;6158816;23;20085;-82
2023/01/04 09:19:39;;;;;;;0.00;0.00;;;;;;;11.90;100.00;100312.53;6156769;23;20091;-80
2023/01/04 09:22:05;;;;;;;0.00;0.00;;;;;;;11.81;100.00;100316.91;6178122;23;20027;-80
2023/01/04 09:24:34;;;;;;;0.00;0.00;;;;;;;11.81;100.00;100308.69;6132352;23;20017;-81
2023/01/04 09:26:59;;;;;;;0.00;0.00;;;;;;;11.89;100.00;100313.63;6178325;23;20020;-80
2023/01/04 09:29:26;;;;;;;0.00;0.00;;;;;;;11.86;100.00;100315.00;6207047;23;20084;-81
2023/01/04 09:31:54;;;;;;;0.00;0.00;;;;;;;11.91;100.00;100313.34;6155445;23;20009;-79
2023/01/04 09:34:20;;;;;;;0.00;0.00;;;;;;;12.01;100.00;100319.66;6182694;23;20005;-80
2023/01/04 09:36:47;;;;;;;0.00;0.00;;;;;;;11.93;100.00;100314.75;6153908;23;20020;-80
2023/01/04 09:39:14;;;;;;;0.00;0.00;;;;;;;11.96;100.00;100325.16;6180780;23;20000;-80
2023/01/04 09:41:46;;;;;;;0.00;0.00;;;;;;;11.90;100.00;100320.75;6205744;23;20021;-80
2023/01/04 09:44:31;;;;;;;0.10;0.10;;;;;;;11.94;100.00;100326.53;6178957;23;20001;-79
2023/01/04 09:47:03;;;;;;;0.08;0.08;;;;;;;11.88;100.00;100317.47;6200393;23;20001;-79
2023/01/04 09:49:34;;;;;;;0.00;0.00;;;;;;;11.95;100.00;100336.41;6179965;23;20013;-81
2023/01/04 09:52:24;;;;;;;0.00;0.00;;;;;;;11.97;100.00;100337.75;6176488;23;20009;-80
2023/01/04 09:54:56;;;;;;;0.00;0.00;;;;;;;11.99;100.00;100324.59;6179471;23;20001;-80
2023/01/04 09:57:29;;;;;;;0.00;0.00;;;;;;;12.05;100.00;100344.59;6179183;23;20001;-79
2023/01/04 10:00:01;;;;;;;0.10;0.10;;;;;;;12.02;100.00;100343.22;6206418;23;20009;-80
2023/01/04 10:02:43;;;;;;;0.00;0.00;;;;;;;12.00;100.00;100337.22;6178155;23;20008;-80
2023/01/04 10:05:20;;;;;;;0.00;0.00;;;;;;;12.07;100.00;100341.56;6180952;23;20015;-81
2023/01/04 10:07:46;;;;;;;0.00;0.00;;;;;;;12.10;100.00;100324.56;6177875;23;20006;-81
2023/01/04 10:10:19;;;;;;;0.00;0.00;;;;;;;12.12;100.00;100328.69;6155900;23;20050;-80
2023/01/04 10:13:12;;;;;;;0.00;0.00;;;;;;;12.22;100.00;100333.28;6172185;23;20011;-79
2023/01/04 10:16:03;;;;;;;0.00;0.00;;;;;;;12.26;100.00;100353.56;6182960;23;20043;-79
2023/01/04 10:18:31;;;;;;;0.00;0.00;;;;;;;12.33;100.00;100356.84;6186576;23;20428;-82
2023/01/04 10:21:27;;;;;;;0.00;0.00;;;;;;;12.32;100.00;100359.84;6182523;23;20012;-80
2023/01/04 10:24:14;;;;;;;0.00;0.00;;;;;;;12.37;100.00;100351.63;6182780;23;20083;-80
2023/01/04 10:27:04;;;;;;;0.00;0.00;;;;;;;12.26;100.00;100360.97;6181243;23;20015;-80
2023/01/04 10:29:32;;;;;;;0.00;0.00;;;;;;;12.32;100.00;100366.16;6184943;23;19981;-80
2023/01/04 10:32:10;;;;;;;0.00;0.00;;;;;;;12.29;100.00;100380.41;6182173;23;20009;-81
2023/01/04 10:34:42;;;;;;;0.00;0.00;;;;;;;12.30;100.00;100368.38;6180558;23;20009;-81
2023/01/04 10:37:33;;;;;;;0.00;0.00;;;;;;;12.33;100.00;100370.53;6203739;23;20100;-81
2023/01/04 10:40:00;;;;;;;0.00;0.00;;;;;;;12.34;100.00;100363.97;6178125;23;20421;-80
2023/01/04 10:42:36;;;;;;;0.00;0.00;;;;;;;12.43;100.00;100361.47;6175964;23;20017;-78
2023/01/04 10:45:32;;;;;;;0.00;0.00;;;;;;;12.53;100.00;100371.59;6206001;23;20420;-80
2023/01/04 10:48:14;;;;;;;0.00;0.00;;;;;;;12.53;100.00;100377.06;6176025;23;20056;-79
2023/01/04 10:51:06;;;;;;;0.00;0.00;;;;;;;12.61;100.00;100384.69;6178462;23;20083;-81
2023/01/04 10:54:12;;;;;;;0.00;0.00;;;;;;;12.56;100.00;100382.00;6183705;23;20049;-82
2023/01/04 10:57:05;;;;;;;0.00;0.00;;;;;;;12.58;100.00;100364.13;6125298;23;20032;-80
2023/01/04 10:59:41;;;;;;;0.00;0.00;;;;;;;12.67;100.00;100356.13;6178525;23;20723;-80
2023/01/04 11:02:55;;;;;;;0.00;0.00;;;;;;;12.86;100.00;100371.97;6182683;23;20012;-80
2023/01/04 11:05:44;;;;;;;0.00;0.00;;;;;;;12.78;100.00;100383.56;6163414;23;20008;-80
2023/01/04 11:08:15;;;;;;;0.08;0.08;;;;;;;12.70;100.00;100372.06;6176720;23;20040;-80
2023/01/04 11:10:53;;;;;;;0.00;0.00;;;;;;;12.63;100.00;100377.03;6183952;23;20005;-79
2023/01/04 11:13:19;;;;;;;0.00;0.00;;;;;;;12.58;100.00;100377.03;6203340;23;20064;-82
2023/01/04 11:15:46;;;;;;;0.00;0.00;;;;;;;12.66;100.00;100373.72;6157058;23;20424;-80
2023/01/04 11:18:12;;;;;;;0.00;0.00;;;;;;;12.63;100.00;100371.53;6130602;23;20391;-80
2023/01/04 11:20:38;;;;;;;0.00;0.00;;;;;;;12.64;100.00;100380.59;6134224;23;20013;-80
2023/01/04 11:23:11;;;;;;;0.00;0.00;;;;;;;12.63;100.00;100393.50;6180657;23;20031;-80
2023/01/04 11:25:52;;;;;;;;;;;;;;;;;;;;;
2023/01/04 11:28:27;;;;;;;0.00;0.00;;;;;;;12.43;100.00;100399.88;6178257;23;20084;-80
2023/01/04 11:31:25;;;;;;;0.00;0.00;;;;;;;12.46;100.00;100404.78;6206551;23;19997;-81
2023/01/04 11:33:53;;;;;;;0.00;0.00;;;;;;;12.42;100.00;100402.88;6176930;23;20016;-80
2023/01/04 11:36:31;;;;;;;0.00;0.00;;;;;;;12.45;100.00;100414.09;6181071;23;20005;-80
2023/01/04 11:38:59;;;;;;;0.00;0.00;;;;;;;12.35;100.00;100404.00;6167964;23;20009;-81
2023/01/04 11:41:25;;;;;;;0.00;0.00;;;;;;;12.38;100.00;100397.13;6180410;23;20021;-81
2023/01/04 11:44:02;;;;;;;0.00;0.00;;;;;;;12.38;100.00;100387.00;6182360;23;20008;-80
2023/01/04 11:46:29;;;;;;;0.00;0.00;;;;;;;12.35;100.00;100393.03;6171041;23;20005;-80
2023/01/04 11:48:55;;;;;;;0.00;0.00;;;;;;;12.32;100.00;100379.84;6152662;23;20467;-81
2023/01/04 11:51:27;;;;;;;0.00;0.00;;;;;;;12.32;100.00;100379.84;6203786;23;20005;-81
2023/01/04 11:54:00;;;;;;;0.00;0.00;;;;;;;12.29;100.00;100410.59;6178100;23;20439;-81
2023/01/04 11:56:28;;;;;;;0.00;0.00;;;;;;;12.15;100.00;100387.59;6178177;23;20008;-82
2023/01/04 11:59:03;;;;;;;0.00;0.00;;;;;;;12.11;100.00;100387.31;6176618;23;20001;-81
2023/01/04 12:01:36;;;;;;;0.00;0.00;;;;;;;12.05;100.00;100382.97;6178044;23;20009;-81
2023/01/04 12:04:02;;;;;;;0.00;0.00;;;;;;;12.05;100.00;100393.94;6180714;23;20753;-79
2023/01/04 12:06:57;;;;;;;0.00;0.00;;;;;;;12.00;100.00;100386.53;6140337;23;20382;-81
2023/01/04 12:09:23;;;;;;;0.00;0.00;;;;;;;11.88;100.00;100369.50;6166809;23;20005;-81
2023/01/04 12:11:57;;;;;;;0.00;0.00;;;;;;;12.12;100.00;100382.66;6197964;23;20005;-80
2023/01/04 12:14:35;;;;;;;;;;;;;;;;;;;;;
2023/01/04 12:17:23;;;;;;;0.00;0.00;;;;;;;12.71;100.00;100378.34;6175000;23;19980;-78
2023/01/04 12:19:53;;;;;;;0.00;0.00;;;;;;;12.69;100.00;100370.41;6191656;23;20383;-80
2023/01/04 12:22:35;;;;;;;0.00;0.00;;;;;;;12.63;100.00;100376.19;6177797;23;20001;-79